Time;durP1;ratioP1;P1;durP2;ratioP2;P2;SDS_P1;SDS_P2;PMS_P1;PMS_P2;Temp;Humidity;BMP_temperature;BMP_pressure;BME280_temperature;BME280_humidity;BME280_pressure;Samples;Min_cycle;Max_cycle;Signal;HPM_P1;HPM_P2
2021/10/11 00:01:20;;;;;;;37.70;18.07;;;4.50;99.90;;;;;;4466963;32;20159;-64
2021/10/11 00:03:46;;;;;;;43.47;18.37;;;4.40;99.90;;;;;;4468837;32;20146;-64
2021/10/11 00:06:13;;;;;;;39.07;18.40;;;4.50;99.90;;;;;;4468644;32;20183;-64
2021/10/11 00:08:40;;;;;;;37.43;18.20;;;4.40;99.90;;;;;;4467242;32;20152;-64
2021/10/11 00:11:07;;;;;;;38.00;18.00;;;4.40;99.90;;;;;;4468896;32;20134;-65
2021/10/11 00:13:33;;;;;;;34.90;17.87;;;4.40;99.90;;;;;;4458536;32;20123;-64
2021/10/11 00:16:00;;;;;;;39.53;18.80;;;4.40;99.90;;;;;;4458467;32;20143;-64
2021/10/11 00:18:27;;;;;;;38.03;17.83;;;4.40;99.90;;;;;;4456762;32;20177;-64
2021/10/11 00:20:54;;;;;;;40.87;19.23;;;4.40;99.90;;;;;;4456478;32;20473;-64
2021/10/11 00:23:21;;;;;;;40.03;18.60;;;4.40;99.90;;;;;;4456729;32;20126;-64
2021/10/11 00:25:47;;;;;;;35.53;17.93;;;4.40;99.90;;;;;;4456248;32;20138;-64
2021/10/11 00:28:14;;;;;;;35.83;18.07;;;4.30;99.90;;;;;;4458185;32;20130;-65
2021/10/11 00:30:41;;;;;;;39.87;17.80;;;4.30;99.90;;;;;;4457771;32;20146;-64
2021/10/11 00:33:08;;;;;;;35.20;18.13;;;4.30;99.90;;;;;;4458103;32;20396;-64
2021/10/11 00:35:35;;;;;;;38.73;17.77;;;4.20;99.90;;;;;;4456556;32;20180;-64
2021/10/11 00:38:01;;;;;;;35.30;18.30;;;4.20;99.90;;;;;;4456341;32;20126;-64
2021/10/11 00:40:28;;;;;;;39.23;18.13;;;4.10;99.90;;;;;;4456075;32;20306;-64
2021/10/11 00:42:55;;;;;;;38.90;18.00;;;4.10;99.90;;;;;;4455960;32;20127;-63
2021/10/11 00:45:22;;;;;;;37.00;18.13;;;4.20;99.90;;;;;;4456189;32;20123;-63
2021/10/11 00:47:49;;;;;;;35.80;17.13;;;4.20;99.90;;;;;;4456287;32;20161;-64
2021/10/11 00:50:15;;;;;;;35.43;18.23;;;4.20;99.90;;;;;;4455740;32;20546;-64
2021/10/11 00:52:42;;;;;;;39.07;18.20;;;4.10;99.90;;;;;;4457785;32;20133;-65
2021/10/11 00:55:09;;;;;;;34.17;17.10;;;4.20;99.90;;;;;;4456098;32;20162;-64
2021/10/11 00:57:36;;;;;;;36.27;17.77;;;4.20;99.90;;;;;;4457508;32;20132;-64
2021/10/11 01:00:04;;;;;;;40.67;17.93;;;4.20;99.90;;;;;;4457342;32;20172;-65
2021/10/11 01:02:31;;;;;;;35.97;18.20;;;4.20;99.90;;;;;;4455548;32;20202;-65
2021/10/11 01:04:59;;;;;;;38.80;17.90;;;4.20;99.90;;;;;;4455592;32;20128;-64
2021/10/11 01:07:25;;;;;;;39.80;17.93;;;4.20;99.90;;;;;;4456736;32;20144;-64
2021/10/11 01:09:52;;;;;;;37.60;17.80;;;4.30;99.90;;;;;;4457303;32;20196;-66
2021/10/11 01:12:19;;;;;;;39.17;18.27;;;4.30;99.90;;;;;;4457113;32;20420;-64
2021/10/11 01:14:46;;;;;;;36.90;17.87;;;4.30;99.90;;;;;;4457731;32;20130;-65
2021/10/11 01:17:15;;;;;;;39.87;18.10;;;4.30;99.90;;;;;;4455962;32;20130;-65
2021/10/11 01:19:48;;;;;;;34.87;16.97;;;4.40;99.90;;;;;;4457580;32;20130;-65
2021/10/11 01:22:18;;;;;;;36.50;16.77;;;4.40;99.90;;;;;;4455618;32;20169;-65
2021/10/11 01:24:46;;;;;;;38.40;17.67;;;4.40;99.90;;;;;;4455112;32;20308;-65
2021/10/11 01:27:15;;;;;;;35.67;17.33;;;4.40;99.90;;;;;;4457561;32;20214;-66
2021/10/11 01:29:42;;;;;;;38.93;18.47;;;4.40;99.90;;;;;;4455014;32;20151;-64
2021/10/11 01:32:09;;;;;;;36.20;17.70;;;4.40;99.90;;;;;;4457297;32;20194;-64
2021/10/11 01:34:35;;;;;;;35.77;18.23;;;4.40;99.90;;;;;;4457336;32;20132;-64
2021/10/11 01:37:02;;;;;;;35.70;17.40;;;4.40;99.90;;;;;;4455702;32;20195;-65
2021/10/11 01:39:29;;;;;;;32.97;17.13;;;4.40;99.90;;;;;;4455360;32;20229;-64
2021/10/11 01:41:56;;;;;;;36.40;17.70;;;4.40;99.90;;;;;;4456608;32;20186;-64
2021/10/11 01:44:22;;;;;;;39.60;18.17;;;4.40;99.90;;;;;;4455296;32;20186;-64
2021/10/11 01:46:49;;;;;;;41.60;18.07;;;4.40;99.90;;;;;;4456101;32;20159;-64
2021/10/11 01:49:16;;;;;;;40.87;17.13;;;4.40;99.90;;;;;;4455493;32;20122;-65
2021/10/11 01:51:43;;;;;;;32.83;17.23;;;4.50;99.90;;;;;;4455367;32;20177;-65
2021/10/11 01:54:10;;;;;;;38.03;16.97;;;4.50;99.90;;;;;;4454995;32;20533;-65
2021/10/11 01:56:36;;;;;;;36.90;17.77;;;4.50;99.90;;;;;;4456878;32;20176;-65
2021/10/11 01:59:03;;;;;;;38.07;18.30;;;4.50;99.90;;;;;;4456779;32;20393;-64
2021/10/11 02:01:30;;;;;;;33.43;16.73;;;4.50;99.90;;;;;;4454889;32;20510;-65
2021/10/11 02:03:57;;;;;;;34.03;17.47;;;4.50;99.90;;;;;;4457123;32;20137;-65
2021/10/11 02:06:23;;;;;;;38.67;18.00;;;4.50;99.90;;;;;;4456828;32;20188;-65
2021/10/11 02:08:50;;;;;;;33.00;17.07;;;4.50;99.90;;;;;;4455228;32;20198;-64
2021/10/11 02:11:17;;;;;;;35.63;17.03;;;4.50;99.90;;;;;;4455107;32;20130;-64
2021/10/11 02:13:44;;;;;;;35.40;17.10;;;4.50;99.90;;;;;;4456560;32;20398;-64
2021/10/11 02:16:10;;;;;;;39.10;18.17;;;4.50;99.90;;;;;;4456728;32;20262;-65
2021/10/11 02:18:37;;;;;;;34.30;17.50;;;4.50;99.90;;;;;;4454843;32;20127;-64
2021/10/11 02:21:04;;;;;;;38.13;18.00;;;4.50;99.90;;;;;;4454654;32;20184;-64
2021/10/11 02:23:31;;;;;;;35.37;17.93;;;4.60;99.90;;;;;;4455913;32;20183;-65
2021/10/11 02:25:58;;;;;;;40.93;17.03;;;4.60;99.90;;;;;;4456413;32;20136;-65
2021/10/11 02:28:25;;;;;;;37.60;17.33;;;4.60;99.90;;;;;;4456418;32;20124;-64
2021/10/11 02:30:52;;;;;;;34.63;17.53;;;4.60;99.90;;;;;;4456278;32;20189;-64
2021/10/11 02:33:19;;;;;;;34.83;17.47;;;4.70;99.90;;;;;;4456508;32;20163;-64
2021/10/11 02:35:45;;;;;;;34.00;17.07;;;4.70;99.90;;;;;;4454641;32;20368;-64
2021/10/11 02:38:12;;;;;;;33.83;16.57;;;4.70;99.90;;;;;;4455960;32;20190;-64
2021/10/11 02:40:39;;;;;;;42.77;18.67;;;4.70;99.90;;;;;;4454382;32;20507;-64
2021/10/11 02:43:06;;;;;;;36.53;17.67;;;4.70;99.90;;;;;;4454530;32;20133;-65
2021/10/11 02:45:33;;;;;;;40.10;17.90;;;4.80;99.90;;;;;;4456361;32;20135;-65
2021/10/11 02:48:03;;;;;;;35.03;17.57;;;4.80;99.90;;;;;;4454806;32;20125;-64
2021/10/11 02:50:31;;;;;;;41.37;18.67;;;4.70;99.90;;;;;;4454901;32;20366;-65
2021/10/11 02:52:58;;;;;;;41.13;18.23;;;4.70;99.90;;;;;;4454286;32;20180;-65
2021/10/11 02:55:25;;;;;;;36.93;17.37;;;4.70;99.90;;;;;;4456303;32;20138;-65
2021/10/11 02:57:51;;;;;;;36.00;18.20;;;4.60;99.90;;;;;;4455896;32;20187;-65
2021/10/11 03:00:18;;;;;;;37.77;17.47;;;4.60;99.90;;;;;;4455695;32;20144;-64
2021/10/11 03:02:45;;;;;;;37.13;17.37;;;4.60;99.90;;;;;;4454395;32;20522;-64
2021/10/11 03:05:12;;;;;;;32.63;16.63;;;4.50;99.90;;;;;;4456052;32;20124;-64
2021/10/11 03:07:38;;;;;;;33.53;16.80;;;4.50;99.90;;;;;;4454300;32;20167;-65
2021/10/11 03:10:05;;;;;;;33.60;15.93;;;4.50;99.90;;;;;;4456150;32;20122;-64
2021/10/11 03:12:35;;;;;;;38.53;16.90;;;4.50;99.90;;;;;;4454410;32;20163;-65
2021/10/11 03:15:06;;;;;;;34.27;16.70;;;4.40;99.90;;;;;;4454364;32;20183;-65
2021/10/11 03:17:33;;;;;;;37.00;17.10;;;4.30;99.90;;;;;;4454396;32;20186;-64
2021/10/11 03:20:00;;;;;;;36.23;17.50;;;4.30;99.90;;;;;;4455756;32;20131;-64
2021/10/11 03:22:29;;;;;;;38.37;17.70;;;4.20;99.90;;;;;;4455555;32;20420;-64
2021/10/11 03:24:56;;;;;;;38.73;17.13;;;4.20;99.90;;;;;;4455788;32;20435;-64
2021/10/11 03:27:23;;;;;;;39.17;17.53;;;4.10;99.90;;;;;;4455948;32;20140;-64
2021/10/11 03:29:49;;;;;;;37.07;17.07;;;4.00;99.90;;;;;;4454135;32;20187;-65
2021/10/11 03:32:16;;;;;;;36.50;17.70;;;4.00;99.90;;;;;;4455388;32;20156;-64
2021/10/11 03:34:43;;;;;;;37.97;17.93;;;3.90;99.90;;;;;;4454886;32;20471;-64
2021/10/11 03:37:10;;;;;;;37.70;16.97;;;3.90;99.90;;;;;;4453964;32;20198;-64
2021/10/11 03:39:36;;;;;;;38.83;17.53;;;3.80;99.90;;;;;;4455871;32;20176;-65
2021/10/11 03:42:03;;;;;;;36.67;17.73;;;3.90;99.90;;;;;;4454077;32;20135;-64
2021/10/11 03:44:30;;;;;;;36.83;18.23;;;3.90;99.90;;;;;;4455643;32;20223;-64
2021/10/11 03:46:57;;;;;;;35.10;17.23;;;3.90;99.90;;;;;;4454134;32;20128;-64
2021/10/11 03:49:24;;;;;;;32.43;17.07;;;3.90;99.90;;;;;;4458602;32;20128;-63
2021/10/11 03:51:50;;;;;;;37.10;16.87;;;3.80;99.90;;;;;;4458641;32;20220;-65
2021/10/11 03:54:17;;;;;;;35.23;17.40;;;3.80;99.90;;;;;;4458335;32;20343;-64
2021/10/11 03:56:44;;;;;;;33.00;16.63;;;3.80;99.90;;;;;;4456804;32;20180;-65
2021/10/11 03:59:11;;;;;;;33.13;17.20;;;3.80;99.90;;;;;;4458158;32;20199;-64
2021/10/11 04:01:39;;;;;;;35.60;17.30;;;3.80;99.90;;;;;;4457878;32;20158;-64
2021/10/11 04:04:07;;;;;;;32.07;16.53;;;3.80;99.90;;;;;;4458457;32;20126;-65
2021/10/11 04:06:34;;;;;;;30.67;16.00;;;3.80;99.90;;;;;;4456798;32;20175;-65
2021/10/11 04:09:01;;;;;;;35.43;16.30;;;3.80;99.90;;;;;;4456165;32;20183;-64
2021/10/11 04:11:30;;;;;;;33.40;16.30;;;3.70;99.90;;;;;;4457475;32;20180;-65
2021/10/11 04:13:56;;;;;;;32.97;15.80;;;3.80;99.90;;;;;;4458423;32;20293;-64
2021/10/11 04:16:23;;;;;;;30.83;15.97;;;3.70;99.90;;;;;;4457190;32;20138;-64
2021/10/11 04:18:50;;;;;;;32.70;16.20;;;3.70;99.90;;;;;;4458217;32;20176;-64
2021/10/11 04:21:17;;;;;;;32.40;16.10;;;3.70;99.90;;;;;;4457912;32;20373;-64
2021/10/11 04:23:44;;;;;;;33.33;15.90;;;3.70;99.90;;;;;;4457380;32;20131;-65
2021/10/11 04:26:12;;;;;;;32.10;16.27;;;3.70;99.90;;;;;;4456238;32;20461;-64
2021/10/11 04:28:39;;;;;;;36.00;16.03;;;3.60;99.90;;;;;;4458005;32;20159;-64
2021/10/11 04:31:06;;;;;;;34.70;16.77;;;3.60;99.90;;;;;;4456162;32;20207;-64
2021/10/11 04:33:33;;;;;;;33.37;16.53;;;3.60;99.90;;;;;;4456207;32;20125;-64
2021/10/11 04:36:00;;;;;;;36.27;16.50;;;3.60;99.90;;;;;;4456362;32;20168;-64
2021/10/11 04:38:27;;;;;;;36.13;16.00;;;3.60;99.90;;;;;;4456966;32;20130;-64
2021/10/11 04:40:58;;;;;;;30.07;15.93;;;3.50;99.90;;;;;;4456445;32;20130;-64
2021/10/11 04:43:25;;;;;;;35.77;16.27;;;3.50;99.90;;;;;;4456072;32;20473;-64
2021/10/11 04:45:51;;;;;;;30.33;15.73;;;3.60;99.90;;;;;;4456184;32;20133;-65
2021/10/11 04:48:18;;;;;;;34.90;16.50;;;3.60;99.90;;;;;;4458043;32;20119;-65
2021/10/11 04:50:45;;;;;;;32.43;16.10;;;3.60;99.90;;;;;;4457596;32;20149;-64
2021/10/11 04:53:12;;;;;;;34.67;16.50;;;3.60;99.90;;;;;;4456868;32;20164;-64
2021/10/11 04:55:38;;;;;;;36.20;15.90;;;3.60;99.90;;;;;;4456036;32;20129;-64
2021/10/11 04:58:05;;;;;;;34.43;15.97;;;3.50;99.90;;;;;;4457760;32;20127;-63
2021/10/11 05:00:34;;;;;;;32.70;15.70;;;3.50;99.90;;;;;;4455762;32;20234;-64
2021/10/11 05:03:01;;;;;;;29.53;15.03;;;3.50;99.90;;;;;;4455862;32;20159;-64
2021/10/11 05:05:28;;;;;;;34.63;16.13;;;3.50;99.90;;;;;;4455771;32;20184;-64
2021/10/11 05:07:55;;;;;;;30.50;15.33;;;3.50;99.90;;;;;;4456761;32;20188;-64
2021/10/11 05:10:21;;;;;;;29.73;15.80;;;3.50;99.90;;;;;;4455681;32;20433;-63
2021/10/11 05:12:48;;;;;;;32.90;15.70;;;3.50;99.90;;;;;;4457596;32;20176;-63
2021/10/11 05:15:15;;;;;;;32.20;15.47;;;3.40;99.90;;;;;;4457434;32;20136;-63
2021/10/11 05:17:42;;;;;;;31.80;15.20;;;3.40;99.90;;;;;;4454692;32;20190;-65
2021/10/11 05:20:10;;;;;;;30.40;15.37;;;3.50;99.90;;;;;;4455525;32;20127;-64
2021/10/11 05:22:37;;;;;;;26.97;15.00;;;3.40;99.90;;;;;;4457058;32;20187;-65
2021/10/11 05:25:06;;;;;;;27.53;14.50;;;3.50;99.90;;;;;;4457394;32;20124;-64
2021/10/11 05:27:32;;;;;;;31.07;15.50;;;3.50;99.90;;;;;;4455428;32;20127;-64
2021/10/11 05:30:00;;;;;;;30.73;15.10;;;3.50;99.90;;;;;;4456607;32;20160;-64
2021/10/11 05:32:30;;;;;;;32.73;15.57;;;3.50;99.90;;;;;;4455371;32;20164;-64
2021/10/11 05:34:58;;;;;;;32.00;15.23;;;3.50;99.90;;;;;;4456952;32;20129;-65
2021/10/11 05:37:29;;;;;;;30.03;14.97;;;3.50;99.90;;;;;;4454944;32;20151;-64
2021/10/11 05:39:56;;;;;;;28.63;14.13;;;3.50;99.90;;;;;;4456728;32;20453;-63
2021/10/11 05:42:23;;;;;;;29.40;14.80;;;3.50;99.90;;;;;;4456833;32;20376;-64
2021/10/11 05:44:51;;;;;;;28.60;15.03;;;3.50;99.90;;;;;;4455998;32;20211;-64
2021/10/11 05:47:18;;;;;;;31.67;14.87;;;3.50;99.90;;;;;;4454214;32;20171;-64
2021/10/11 05:49:45;;;;;;;32.07;14.70;;;3.50;99.90;;;;;;4455756;32;20127;-63
2021/10/11 05:52:12;;;;;;;29.87;14.10;;;3.60;99.90;;;;;;4456540;32;20176;-65
2021/10/11 05:54:38;;;;;;;29.27;14.77;;;3.60;99.90;;;;;;4456533;32;20118;-65
2021/10/11 05:57:05;;;;;;;27.77;14.63;;;3.70;99.90;;;;;;4456536;32;20124;-65
2021/10/11 05:59:32;;;;;;;30.70;15.10;;;3.80;99.90;;;;;;4454802;32;20128;-64
2021/10/11 06:01:58;;;;;;;31.07;14.90;;;3.80;99.90;;;;;;4455789;32;20179;-65
2021/10/11 06:04:26;;;;;;;31.03;15.57;;;4.00;99.90;;;;;;4454883;32;20133;-64
2021/10/11 06:06:52;;;;;;;29.83;14.90;;;4.00;99.90;;;;;;4454682;32;20507;-64
2021/10/11 06:09:19;;;;;;;55.60;27.10;;;4.10;99.90;;;;;;4456305;32;20406;-64
2021/10/11 06:11:46;;;;;;;38.80;18.50;;;4.10;99.90;;;;;;4454178;32;20139;-64
2021/10/11 06:14:13;;;;;;;29.23;15.13;;;4.20;99.90;;;;;;4454734;32;20155;-65
2021/10/11 06:16:40;;;;;;;31.23;14.77;;;4.30;99.90;;;;;;4454669;32;20234;-66
2021/10/11 06:19:12;;;;;;;26.37;13.73;;;4.40;99.90;;;;;;4454552;32;20153;-65
2021/10/11 06:21:39;;;;;;;24.17;13.30;;;4.50;99.90;;;;;;4456224;32;20126;-65
2021/10/11 06:24:05;;;;;;;26.90;12.80;;;4.60;99.90;;;;;;4453775;32;20142;-65
2021/10/11 06:26:32;;;;;;;24.90;13.23;;;4.70;99.90;;;;;;4454673;32;20126;-65
2021/10/11 06:28:59;;;;;;;25.83;12.93;;;4.80;99.90;;;;;;4455776;32;20226;-64
2021/10/11 06:31:26;;;;;;;23.70;12.50;;;4.90;99.90;;;;;;4454611;32;20214;-64
2021/10/11 06:33:52;;;;;;;28.73;14.00;;;5.00;99.90;;;;;;4456090;32;20195;-65
2021/10/11 06:36:19;;;;;;;25.43;12.87;;;5.10;99.90;;;;;;4454165;32;20125;-64
2021/10/11 06:38:46;;;;;;;26.80;13.27;;;5.40;99.90;;;;;;4455808;32;20130;-64
2021/10/11 06:41:13;;;;;;;24.37;11.57;;;5.40;99.90;;;;;;4454243;32;20459;-64
2021/10/11 06:43:40;;;;;;;22.87;12.10;;;5.60;99.90;;;;;;4454683;32;20137;-64
2021/10/11 06:46:06;;;;;;;24.90;11.67;;;5.70;99.90;;;;;;4455427;32;20397;-64
2021/10/11 06:48:33;;;;;;;22.27;11.70;;;5.90;99.90;;;;;;4454126;32;20126;-64
2021/10/11 06:51:00;;;;;;;25.87;12.00;;;6.10;99.90;;;;;;4454154;32;20443;-64
2021/10/11 06:53:27;;;;;;;20.33;11.60;;;6.20;99.90;;;;;;4455942;32;20222;-65
2021/10/11 06:55:53;;;;;;;23.47;12.10;;;6.40;99.90;;;;;;4454201;32;20122;-64
2021/10/11 06:58:20;;;;;;;22.00;11.33;;;6.40;99.90;;;;;;4456045;32;20194;-64
2021/10/11 07:00:47;;;;;;;25.43;12.40;;;6.50;99.90;;;;;;4453985;32;20157;-64
2021/10/11 07:03:15;;;;;;;23.23;12.30;;;6.60;99.90;;;;;;4455449;32;20391;-64
2021/10/11 07:05:42;;;;;;;22.60;11.70;;;6.80;99.90;;;;;;4455775;32;20192;-64
2021/10/11 07:08:10;;;;;;;25.43;12.90;;;6.90;99.90;;;;;;4455863;32;20157;-64
2021/10/11 07:10:38;;;;;;;32.33;13.37;;;7.00;99.90;;;;;;4454879;32;20402;-64
2021/10/11 07:13:05;;;;;;;26.47;13.17;;;7.10;99.90;;;;;;4456071;32;20443;-63
2021/10/11 07:15:33;;;;;;;31.13;13.43;;;7.10;99.90;;;;;;4456049;32;20174;-64
2021/10/11 07:18:00;;;;;;;27.37;13.23;;;7.00;99.90;;;;;;4455680;32;20124;-64
2021/10/11 07:20:27;;;;;;;27.03;12.63;;;7.10;99.90;;;;;;4453638;32;20175;-64
2021/10/11 07:22:54;;;;;;;32.37;13.93;;;7.00;99.90;;;;;;4454693;32;20194;-64
2021/10/11 07:25:21;;;;;;;28.23;13.50;;;7.00;99.90;;;;;;4458854;32;20129;-64
2021/10/11 07:27:48;;;;;;;27.70;13.17;;;7.10;99.90;;;;;;4457209;32;20237;-64
2021/10/11 07:30:15;;;;;;;31.93;13.23;;;7.20;99.90;;;;;;4456724;32;20130;-65
2021/10/11 07:32:42;;;;;;;28.57;13.03;;;7.30;99.90;;;;;;4458716;32;20122;-64
2021/10/11 07:35:09;;;;;;;30.83;13.13;;;7.40;99.90;;;;;;4456966;32;20200;-64
2021/10/11 07:37:51;;;;;;;31.07;13.93;;;7.40;99.90;;;;;;4456569;32;20152;-65
2021/10/11 07:40:20;;;;;;;25.70;12.77;;;7.50;99.90;;;;;;4458983;32;20123;-65
2021/10/11 07:42:47;;;;;;;29.50;13.83;;;7.70;99.90;;;;;;4460089;32;20150;-65
2021/10/11 07:45:14;;;;;;;29.07;13.73;;;7.80;99.90;;;;;;4453802;32;20143;-65
2021/10/11 07:47:41;;;;;;;33.03;13.63;;;7.80;99.90;;;;;;4448581;32;20494;-64
2021/10/11 07:50:08;;;;;;;26.57;13.20;;;7.70;99.90;;;;;;4443050;32;20176;-64
2021/10/11 07:52:35;;;;;;;27.73;12.93;;;7.80;99.90;;;;;;4441249;32;20162;-65
2021/10/11 07:55:03;;;;;;;29.07;13.40;;;8.30;99.90;;;;;;4442750;32;20183;-65
2021/10/11 07:57:33;;;;;;;24.40;12.83;;;8.80;99.90;;;;;;4441540;32;20126;-65
2021/10/11 08:00:06;;;;;;;27.77;13.23;;;9.50;99.90;;;;;;4441847;32;20349;-65
2021/10/11 08:02:33;;;;;;;26.43;13.60;;;10.10;99.90;;;;;;4441322;32;20296;-65
2021/10/11 08:05:00;;;;;;;26.00;13.43;;;10.50;99.90;;;;;;4442329;32;20119;-65
2021/10/11 08:07:27;;;;;;;31.00;12.80;;;10.90;99.90;;;;;;4451361;32;20212;-65
2021/10/11 08:09:54;;;;;;;25.20;13.03;;;11.30;99.90;;;;;;4440899;32;20128;-65
2021/10/11 08:12:20;;;;;;;27.27;13.00;;;11.60;99.90;;;;;;4441341;32;20182;-65
2021/10/11 08:14:47;;;;;;;28.60;12.53;;;11.90;99.10;;;;;;4442283;32;20179;-64
2021/10/11 08:17:14;;;;;;;23.40;12.60;;;12.10;98.70;;;;;;4440691;32;20131;-65
2021/10/11 08:19:41;;;;;;;27.07;12.90;;;12.50;97.60;;;;;;4442520;32;20176;-65
2021/10/11 08:22:08;;;;;;;24.80;12.87;;;12.90;96.90;;;;;;4441054;32;20127;-65
2021/10/11 08:24:34;;;;;;;26.53;12.33;;;13.20;95.40;;;;;;4441568;32;20203;-65
2021/10/11 08:27:01;;;;;;;25.47;13.40;;;13.50;94.10;;;;;;4441011;32;20478;-66
2021/10/11 08:29:28;;;;;;;25.40;12.73;;;13.90;93.20;;;;;;4442203;32;20409;-66
2021/10/11 08:31:55;;;;;;;24.93;12.33;;;14.20;91.30;;;;;;4442425;32;20150;-66
2021/10/11 08:34:22;;;;;;;25.57;12.57;;;14.50;90.50;;;;;;4440369;32;20429;-64
2021/10/11 08:36:48;;;;;;;25.17;12.43;;;14.80;88.10;;;;;;4440812;32;20131;-65
2021/10/11 08:39:15;;;;;;;25.40;12.33;;;15.10;86.10;;;;;;4442264;32;20135;-65
2021/10/11 08:41:43;;;;;;;25.23;12.90;;;15.30;84.30;;;;;;4440367;32;20135;-65
2021/10/11 08:44:11;;;;;;;25.83;11.97;;;15.50;83.40;;;;;;4441545;32;20183;-66
2021/10/11 08:46:38;;;;;;;23.57;11.83;;;15.70;80.00;;;;;;4447016;32;20464;-65
2021/10/11 08:49:06;;;;;;;24.00;12.40;;;15.90;77.80;;;;;;4455746;32;20183;-65
2021/10/11 08:51:33;;;;;;;27.60;12.57;;;16.20;77.10;;;;;;4457427;32;20146;-65
2021/10/11 08:54:00;;;;;;;21.77;11.90;;;16.40;76.00;;;;;;4456448;32;20134;-64
2021/10/11 08:56:27;;;;;;;22.17;12.03;;;16.50;73.70;;;;;;4457863;32;20178;-66
2021/10/11 08:58:53;;;;;;;20.90;11.13;;;16.50;71.90;;;;;;4457471;32;20158;-65
2021/10/11 09:01:22;;;;;;;22.50;11.10;;;16.60;73.70;;;;;;4457354;32;20207;-65
2021/10/11 09:03:49;;;;;;;21.87;11.87;;;16.70;72.90;;;;;;4455352;32;20165;-66
2021/10/11 09:06:16;;;;;;;22.37;11.40;;;16.90;71.10;;;;;;4455834;32;20138;-66
2021/10/11 09:08:43;;;;;;;24.40;11.63;;;16.90;71.00;;;;;;4456053;32;20446;-66
2021/10/11 09:11:12;;;;;;;21.43;10.80;;;16.80;70.10;;;;;;4455670;32;20191;-66
2021/10/11 09:13:45;;;;;;;23.47;11.33;;;16.60;68.90;;;;;;4455487;32;20127;-66
2021/10/11 09:16:16;;;;;;;20.00;11.33;;;16.30;70.10;;;;;;4451039;32;20138;-65
2021/10/11 09:18:52;;;;;;;19.57;11.10;;;16.00;71.30;;;;;;4443774;32;20449;-65
2021/10/11 09:21:30;;;;;;;19.20;10.40;;;15.80;71.60;;;;;;4441026;32;20123;-65
2021/10/11 09:24:11;;;;;;;28.20;12.10;;;15.60;73.30;;;;;;4439866;32;20214;-65
2021/10/11 09:26:53;;;;;;;23.47;11.03;;;15.50;73.00;;;;;;4440835;32;20126;-65
2021/10/11 09:29:37;;;;;;;22.47;11.00;;;15.60;73.40;;;;;;4441230;32;20183;-65
2021/10/11 09:32:09;;;;;;;21.90;10.73;;;15.90;71.90;;;;;;4440876;32;20301;-65
2021/10/11 09:34:39;;;;;;;19.60;10.43;;;16.10;71.80;;;;;;4439394;32;20135;-65
2021/10/11 09:37:10;;;;;;;18.80;9.97;;;16.40;71.10;;;;;;4441300;32;20503;-66
2021/10/11 09:39:39;;;;;;;20.20;10.33;;;16.90;69.70;;;;;;4439172;32;20135;-65
2021/10/11 09:42:09;;;;;;;20.37;10.67;;;17.30;67.60;;;;;;4439716;32;20123;-66
2021/10/11 09:44:36;;;;;;;17.87;10.47;;;17.40;65.80;;;;;;4440093;32;20202;-65
2021/10/11 09:47:08;;;;;;;19.47;10.53;;;17.70;65.60;;;;;;4449088;32;20157;-64
2021/10/11 09:49:36;;;;;;;18.77;10.33;;;18.20;66.00;;;;;;4439278;32;20139;-68
2021/10/11 09:52:03;;;;;;;20.37;10.90;;;18.80;63.70;;;;;;4439405;32;20135;-67
2021/10/11 09:54:30;;;;;;;18.93;10.90;;;19.10;62.20;;;;;;4439939;32;20184;-67
2021/10/11 09:57:00;;;;;;;21.80;10.43;;;19.30;60.70;;;;;;4439504;32;20130;-68
2021/10/11 09:59:28;;;;;;;19.87;10.50;;;19.40;59.50;;;;;;4441292;32;20123;-68
2021/10/11 10:01:55;;;;;;;21.67;10.37;;;19.50;58.60;;;;;;4439023;32;20488;-67
2021/10/11 10:04:27;;;;;;;17.93;9.43;;;19.70;59.10;;;;;;4439267;32;20139;-68
2021/10/11 10:06:56;;;;;;;19.60;9.87;;;20.20;56.40;;;;;;4441165;32;20629;-69
2021/10/11 10:09:26;;;;;;;18.77;9.73;;;20.60;55.60;;;;;;4439338;32;20176;-68
2021/10/11 10:11:53;;;;;;;21.43;10.00;;;20.70;56.10;;;;;;4440572;32;20215;-68
2021/10/11 10:14:25;;;;;;;25.43;9.63;;;21.10;54.50;;;;;;4440439;32;20127;-65
2021/10/11 10:16:55;;;;;;;16.53;8.77;;;21.30;53.10;;;;;;4439814;32;20190;-68
2021/10/11 10:19:40;;;;;;;16.33;7.63;;;21.40;50.00;;;;;;4439908;32;20143;-66
2021/10/11 10:22:14;;;;;;;18.07;8.47;;;21.80;48.10;;;;;;4438330;32;20440;-66
2021/10/11 10:24:41;;;;;;;16.27;8.40;;;22.20;48.60;;;;;;4440429;32;20191;-68
2021/10/11 10:27:10;;;;;;;21.20;8.70;;;22.60;46.90;;;;;;4448006;32;20142;-67
2021/10/11 10:29:48;;;;;;;18.77;8.63;;;22.80;44.50;;;;;;4440688;32;20425;-65
2021/10/11 10:32:18;;;;;;;17.90;8.00;;;22.10;46.10;;;;;;4438914;32;20146;-66
2021/10/11 10:34:57;;;;;;;20.33;8.17;;;22.20;45.30;;;;;;4439284;32;20158;-66
2021/10/11 10:37:34;;;;;;;18.97;8.77;;;22.60;45.50;;;;;;4439795;32;20123;-66
2021/10/11 10:40:13;;;;;;;17.17;8.43;;;22.30;45.90;;;;;;4440197;32;20180;-67
2021/10/11 10:42:40;;;;;;;22.83;8.30;;;22.50;41.70;;;;;;4438924;32;20123;-65
2021/10/11 10:45:20;;;;;;;17.77;8.87;;;22.50;43.40;;;;;;4440406;32;20225;-66
2021/10/11 10:47:49;;;;;;;19.27;9.13;;;22.70;42.90;;;;;;4440886;32;20171;-68
2021/10/11 10:50:23;;;;;;;19.77;9.10;;;23.30;43.10;;;;;;4439383;32;20153;-66
2021/10/11 10:52:56;;;;;;;18.47;9.73;;;23.80;42.50;;;;;;4440029;32;20192;-68
2021/10/11 10:55:25;;;;;;;21.47;9.63;;;24.10;41.30;;;;;;4440081;32;20135;-67
2021/10/11 10:58:00;;;;;;;18.08;9.68;;;24.30;39.60;;;;;;4438738;32;20130;-67
2021/10/11 11:00:27;;;;;;;19.05;10.23;;;24.70;39.00;;;;;;4440001;32;20517;-67
2021/10/11 11:02:54;;;;;;;20.77;10.48;;;25.00;39.50;;;;;;4440513;32;20146;-68
2021/10/11 11:05:23;;;;;;;19.30;10.40;;;24.40;40.00;;;;;;4440224;32;20159;-66
2021/10/11 11:07:52;;;;;;;20.37;10.13;;;24.60;39.20;;;;;;4440465;32;20226;-66
2021/10/11 11:10:20;;;;;;;20.87;10.20;;;24.60;38.50;;;;;;4437881;32;20224;-67
2021/10/11 11:12:54;;;;;;;20.50;10.32;;;24.80;37.10;;;;;;4439851;32;20135;-69
2021/10/11 11:15:27;;;;;;;18.70;10.00;;;25.10;36.60;;;;;;4440115;32;20131;-67
2021/10/11 11:17:57;;;;;;;21.87;10.27;;;25.20;36.00;;;;;;4440018;32;20336;-66
2021/10/11 11:20:29;;;;;;;19.65;10.50;;;25.30;36.40;;;;;;4440506;32;20123;-68
2021/10/11 11:23:03;;;;;;;23.15;10.38;;;25.20;36.30;;;;;;4439759;32;20143;-67
2021/10/11 11:25:35;;;;;;;19.73;9.73;;;23.80;35.30;;;;;;4440459;32;20138;-67
2021/10/11 11:28:22;;;;;;;21.08;10.07;;;23.40;38.20;;;;;;4440222;32;20123;-68
2021/10/11 11:30:54;;;;;;;17.55;9.43;;;23.90;38.10;;;;;;4439103;32;20151;-67
2021/10/11 11:33:25;;;;;;;21.27;10.40;;;25.20;36.80;;;;;;4449783;32;20181;-69
2021/10/11 11:35:54;;;;;;;19.58;10.05;;;26.40;35.40;;;;;;4454177;32;20135;-67
2021/10/11 11:38:26;;;;;;;20.98;10.10;;;27.30;34.60;;;;;;4454956;32;20210;-66
2021/10/11 11:40:55;;;;;;;17.60;9.57;;;28.20;33.10;;;;;;4456917;32;20494;-66
2021/10/11 11:43:22;;;;;;;20.98;8.65;;;28.90;32.40;;;;;;4456713;32;20506;-66
2021/10/11 11:45:52;;;;;;;21.08;8.70;;;28.80;30.00;;;;;;4454642;32;20448;-67
2021/10/11 11:48:27;;;;;;;16.80;8.25;;;28.70;30.50;;;;;;4455940;32;20157;-66
2021/10/11 11:50:56;;;;;;;21.05;8.90;;;27.60;32.00;;;;;;4453038;32;20133;-66
2021/10/11 11:53:25;;;;;;;17.80;8.60;;;28.50;32.30;;;;;;4453716;32;20174;-66
2021/10/11 11:55:54;;;;;;;14.77;8.70;;;29.10;31.50;;;;;;4455556;32;20119;-68
2021/10/11 11:58:31;;;;;;;19.17;8.73;;;29.70;32.50;;;;;;4454921;32;20206;-68
2021/10/11 12:01:02;;;;;;;20.70;8.98;;;30.00;31.40;;;;;;4455221;32;20165;-66
2021/10/11 12:03:31;;;;;;;18.12;8.68;;;29.50;30.80;;;;;;4454945;32;20153;-67
2021/10/11 12:06:00;;;;;;;16.70;9.05;;;29.70;29.90;;;;;;4453127;32;20190;-66
2021/10/11 12:08:27;;;;;;;15.43;9.27;;;28.00;31.20;;;;;;4448091;32;20226;-68
2021/10/11 12:11:03;;;;;;;19.75;9.13;;;27.90;31.70;;;;;;4441720;32;20388;-67
2021/10/11 12:13:33;;;;;;;20.20;8.52;;;27.10;33.50;;;;;;4441098;32;20126;-66
2021/10/11 12:16:05;;;;;;;16.27;8.70;;;25.30;34.00;;;;;;4442688;32;20143;-67
2021/10/11 12:18:40;;;;;;;20.62;9.13;;;24.70;36.00;;;;;;4439973;32;20459;-66
2021/10/11 12:21:32;;;;;;;17.33;9.43;;;24.30;37.10;;;;;;4440843;32;20179;-67
2021/10/11 12:24:01;;;;;;;17.48;9.30;;;23.70;36.70;;;;;;4442348;32;20151;-66
2021/10/11 12:26:30;;;;;;;18.20;8.80;;;23.40;36.90;;;;;;4441888;32;20155;-67
2021/10/11 12:29:05;;;;;;;18.98;9.10;;;22.90;36.90;;;;;;4439786;32;20165;-66
2021/10/11 12:31:34;;;;;;;22.33;9.33;;;22.20;38.40;;;;;;4440714;32;20170;-65
2021/10/11 12:34:08;;;;;;;20.00;8.83;;;21.40;40.20;;;;;;4441750;32;20154;-64
2021/10/11 12:36:50;;;;;;;18.37;8.90;;;21.40;39.40;;;;;;4440379;32;20123;-66
2021/10/11 12:39:18;;;;;;;15.77;8.00;;;20.50;41.70;;;;;;4440595;32;20388;-66
2021/10/11 12:41:49;;;;;;;15.73;7.93;;;20.20;41.10;;;;;;4441831;32;20144;-65